Time;durP1;ratioP1;P1;durP2;ratioP2;P2;SDS_P1;SDS_P2;PMS_P1;PMS_P2;Temp;Humidity;BMP_temperature;BMP_pressure;BME280_temperature;BME280_humidity;BME280_pressure;Samples;Min_cycle;Max_cycle;Signal;HPM_P1;HPM_P2
2021/08/26 00:07:40;;;;;;;3.22;2.92;;;18.70;97.90;;;;;;6247264;23;20365;-86
2021/08/26 00:10:08;;;;;;;3.15;2.85;;;18.60;97.80;;;;;;6219866;23;20040;-86
2021/08/26 00:12:36;;;;;;;4.47;3.47;;;18.50;97.80;;;;;;6219682;23;20055;-86
2021/08/26 00:15:03;;;;;;;4.22;3.83;;;18.50;98.00;;;;;;6246752;23;20011;-87
2021/08/26 00:17:28;;;;;;;3.25;2.95;;;18.40;97.80;;;;;;6246823;23;20472;-86
2021/08/26 00:19:54;;;;;;;3.33;3.03;;;18.40;97.80;;;;;;6246877;23;20027;-86
2021/08/26 00:22:20;;;;;;;3.35;2.90;;;18.30;97.70;;;;;;6246272;23;20004;-86
2021/08/26 00:24:46;;;;;;;4.78;3.42;;;18.30;98.00;;;;;;6246490;23;20438;-86
2021/08/26 00:27:12;;;;;;;3.92;3.35;;;18.30;98.00;;;;;;6219630;23;20027;-86
2021/08/26 00:29:39;;;;;;;3.75;3.33;;;18.30;98.20;;;;;;6246694;23;20366;-86
2021/08/26 00:32:05;;;;;;;3.40;3.10;;;18.30;98.00;;;;;;6219795;23;20015;-86
2021/08/26 00:34:31;;;;;;;2.97;2.70;;;18.20;98.10;;;;;;6219522;23;20095;-86
2021/08/26 00:36:57;;;;;;;4.07;2.72;;;18.20;98.20;;;;;;6219405;23;20054;-86
2021/08/26 00:39:23;;;;;;;3.33;3.03;;;18.20;98.00;;;;;;6219558;23;20142;-86
2021/08/26 00:41:49;;;;;;;3.28;2.97;;;18.20;98.10;;;;;;6246750;23;20066;-86
2021/08/26 00:44:16;;;;;;;3.40;3.10;;;18.20;97.90;;;;;;6246707;23;20003;-86
2021/08/26 00:46:46;;;;;;;3.88;3.20;;;18.20;97.90;;;;;;6247165;23;20374;-87
2021/08/26 00:49:12;;;;;;;4.00;3.42;;;18.20;98.20;;;;;;6219702;23;20000;-86
2021/08/26 00:51:38;;;;;;;3.67;3.00;;;18.20;98.40;;;;;;6219567;23;20327;-86
2021/08/26 00:54:05;;;;;;;3.58;3.28;;;18.10;98.20;;;;;;6219616;23;20415;-86
2021/08/26 00:56:30;;;;;;;3.80;3.40;;;18.10;98.20;;;;;;6246687;23;20052;-86
2021/08/26 00:58:59;;;;;;;2.88;2.65;;;18.10;98.20;;;;;;6246577;23;20000;-87
2021/08/26 01:01:47;;;;;;;2.97;2.72;;;18.10;98.00;;;;;;6246318;23;20000;-87
2021/08/26 01:04:38;;;;;;;3.05;2.47;;;18.10;97.90;;;;;;6219854;23;20423;-87
2021/08/26 01:07:14;;;;;;;2.53;2.33;;;18.10;97.80;;;;;;6245103;23;20059;-86
2021/08/26 01:09:46;;;;;;;2.65;2.42;;;18.20;97.80;;;;;;6246712;23;20000;-86
2021/08/26 01:12:21;;;;;;;2.92;2.53;;;18.20;97.70;;;;;;6246290;23;20066;-86
2021/08/26 01:14:48;;;;;;;2.05;1.95;;;18.20;97.20;;;;;;6219640;23;20363;-86
2021/08/26 01:17:25;;;;;;;2.85;2.50;;;18.20;97.20;;;;;;6219198;23;20011;-86
2021/08/26 01:19:52;;;;;;;2.58;2.38;;;18.20;97.00;;;;;;6248254;23;20110;-86
2021/08/26 01:22:23;;;;;;;2.55;2.35;;;18.10;96.70;;;;;;6221538;23;20388;-86
2021/08/26 01:24:56;;;;;;;2.60;2.40;;;18.10;96.60;;;;;;6221527;23;20028;-86
2021/08/26 01:27:24;;;;;;;3.20;2.40;;;18.00;96.60;;;;;;6221957;23;20371;-86
2021/08/26 01:29:50;;;;;;;2.38;2.05;;;18.00;96.60;;;;;;6221346;23;20083;-86
2021/08/26 01:32:18;;;;;;;2.60;2.40;;;17.90;96.70;;;;;;6220943;23;20028;-86
2021/08/26 01:34:44;;;;;;;2.80;2.53;;;17.90;96.80;;;;;;6221502;23;20016;-86
2021/08/26 01:37:10;;;;;;;3.15;2.92;;;17.90;96.80;;;;;;6248134;22;20416;-87
2021/08/26 01:39:45;;;;;;;2.60;2.40;;;17.80;96.80;;;;;;6246514;23;20348;-86
2021/08/26 01:42:11;;;;;;;2.42;2.22;;;17.80;96.90;;;;;;6248410;23;20000;-87
2021/08/26 01:44:36;;;;;;;2.45;2.25;;;17.70;97.20;;;;;;6220885;23;20007;-86
2021/08/26 01:47:22;;;;;;;2.83;2.40;;;17.70;97.30;;;;;;6248477;23;20013;-86
2021/08/26 01:49:53;;;;;;;3.17;2.88;;;17.60;97.40;;;;;;6247962;23;20004;-86
2021/08/26 01:52:24;;;;;;;3.22;2.83;;;17.50;97.40;;;;;;6221156;23;20144;-86
2021/08/26 01:54:55;;;;;;;2.83;2.63;;;17.50;97.60;;;;;;6248187;23;20057;-86
2021/08/26 01:57:22;;;;;;;2.85;2.55;;;17.50;97.80;;;;;;6246986;23;20091;-86
2021/08/26 01:59:48;;;;;;;2.40;2.20;;;17.50;97.70;;;;;;6220918;23;20309;-86
2021/08/26 02:02:14;;;;;;;3.35;2.90;;;17.50;97.80;;;;;;6221138;23;20015;-86
2021/08/26 02:04:40;;;;;;;3.80;2.78;;;17.50;98.00;;;;;;6246693;23;20007;-86
2021/08/26 02:07:06;;;;;;;3.10;2.80;;;17.50;98.10;;;;;;6220949;23;20016;-86
2021/08/26 02:09:32;;;;;;;3.33;3.00;;;17.50;98.40;;;;;;6247874;23;20004;-86
2021/08/26 02:11:58;;;;;;;2.92;2.72;;;17.50;98.40;;;;;;6247590;23;20004;-86
2021/08/26 02:14:23;;;;;;;3.47;3.05;;;17.50;98.40;;;;;;6220903;23;20007;-86
2021/08/26 02:16:49;;;;;;;2.85;2.53;;;17.50;98.50;;;;;;6221061;23;20004;-86
2021/08/26 02:19:15;;;;;;;3.42;2.85;;;17.50;98.50;;;;;;6247735;23;19996;-86
2021/08/26 02:21:41;;;;;;;3.35;2.72;;;17.40;98.80;;;;;;6221742;23;20004;-86
2021/08/26 02:24:07;;;;;;;3.17;2.80;;;17.40;98.90;;;;;;6220895;23;20054;-86
2021/08/26 02:26:33;;;;;;;3.40;3.10;;;17.30;98.90;;;;;;6248046;23;20045;-86
2021/08/26 02:28:59;;;;;;;3.38;3.08;;;17.30;99.00;;;;;;6245963;23;20034;-86
2021/08/26 02:31:26;;;;;;;3.33;3.03;;;17.20;99.20;;;;;;6246244;23;20004;-86
2021/08/26 02:33:51;;;;;;;3.85;3.45;;;17.20;99.30;;;;;;6220812;23;20012;-86
2021/08/26 02:36:17;;;;;;;3.88;3.20;;;17.10;99.30;;;;;;6220599;23;20087;-86
2021/08/26 02:38:43;;;;;;;3.40;3.10;;;17.10;99.50;;;;;;6247591;23;20066;-86
2021/08/26 02:41:09;;;;;;;3.53;3.05;;;17.00;99.50;;;;;;6220863;23;20323;-86
2021/08/26 02:43:34;;;;;;;3.70;3.28;;;17.00;99.90;;;;;;6220711;23;20032;-86
2021/08/26 02:46:00;;;;;;;3.90;3.22;;;16.90;99.70;;;;;;6220353;23;20016;-86
2021/08/26 02:48:26;;;;;;;3.30;3.00;;;16.90;99.70;;;;;;6220742;23;20505;-86
2021/08/26 02:50:51;;;;;;;3.58;3.00;;;16.90;99.60;;;;;;6220533;23;20332;-86
2021/08/26 02:53:17;;;;;;;3.20;2.90;;;16.90;99.70;;;;;;6220463;23;20428;-86
2021/08/26 02:55:43;;;;;;;3.08;2.78;;;16.80;99.70;;;;;;6247429;23;20001;-86
2021/08/26 02:58:08;;;;;;;3.90;3.50;;;16.80;99.70;;;;;;6220734;23;20366;-86
2021/08/26 03:00:34;;;;;;;3.42;3.13;;;16.80;99.80;;;;;;6247404;23;19996;-86
2021/08/26 03:03:00;;;;;;;3.88;3.22;;;16.80;99.70;;;;;;6245413;23;20011;-86
2021/08/26 03:05:26;;;;;;;3.88;3.47;;;16.70;99.70;;;;;;6247408;23;20000;-86
2021/08/26 03:07:51;;;;;;;3.63;3.33;;;16.70;99.70;;;;;;6247014;23;20000;-86
2021/08/26 03:10:17;;;;;;;3.80;3.42;;;16.70;99.70;;;;;;6220818;23;20383;-86
2021/08/26 03:12:43;;;;;;;3.15;2.90;;;16.60;99.70;;;;;;6246625;23;20379;-86
2021/08/26 03:15:09;;;;;;;3.55;3.25;;;16.60;99.70;;;;;;6247301;23;20003;-86
2021/08/26 03:17:34;;;;;;;3.25;2.95;;;16.60;99.70;;;;;;6247257;23;19997;-86
2021/08/26 03:20:00;;;;;;;3.30;3.00;;;16.60;99.70;;;;;;6247148;23;20007;-86
2021/08/26 03:22:26;;;;;;;4.40;2.88;;;16.60;99.60;;;;;;6220463;23;20036;-86
2021/08/26 03:24:51;;;;;;;3.15;2.85;;;16.60;99.50;;;;;;6247519;23;20051;-86
2021/08/26 03:27:17;;;;;;;3.10;2.80;;;16.60;99.60;;;;;;6220177;23;20004;-86
2021/08/26 03:29:44;;;;;;;4.50;2.92;;;16.60;99.50;;;;;;6246450;23;19996;-86
2021/08/26 03:32:09;;;;;;;3.72;2.78;;;16.50;99.60;;;;;;6219723;23;20087;-86
2021/08/26 03:34:35;;;;;;;4.07;3.17;;;16.50;99.60;;;;;;6247248;23;20004;-86
2021/08/26 03:37:01;;;;;;;3.92;3.40;;;16.50;99.70;;;;;;6219876;23;20004;-86
2021/08/26 03:39:27;;;;;;;3.40;3.10;;;16.60;99.80;;;;;;6220402;23;20000;-86
2021/08/26 03:41:52;;;;;;;3.47;3.17;;;16.60;99.80;;;;;;6219783;23;20100;-85
2021/08/26 03:44:18;;;;;;;2.88;2.65;;;16.60;99.90;;;;;;6249993;23;20000;-86
2021/08/26 03:46:43;;;;;;;3.40;3.10;;;16.60;99.90;;;;;;6249993;23;20019;-86
2021/08/26 03:49:09;;;;;;;4.05;3.20;;;16.60;99.90;;;;;;6223715;23;20008;-86
2021/08/26 03:51:35;;;;;;;3.75;3.08;;;16.60;99.90;;;;;;6222564;23;20008;-86
2021/08/26 03:54:00;;;;;;;4.05;3.00;;;16.60;99.90;;;;;;6220624;23;20309;-86
2021/08/26 03:56:26;;;;;;;4.93;3.67;;;16.70;99.90;;;;;;6219919;23;20008;-86
2021/08/26 03:58:52;;;;;;;4.15;3.13;;;16.70;99.90;;;;;;6220281;23;20011;-86
2021/08/26 04:01:17;;;;;;;3.22;2.92;;;16.80;99.90;;;;;;6220164;23;20030;-86
2021/08/26 04:03:43;;;;;;;4.85;3.17;;;16.90;99.90;;;;;;6220224;23;20392;-86
2021/08/26 04:06:09;;;;;;;4.22;3.55;;;16.90;99.90;;;;;;6246699;23;20023;-86
2021/08/26 04:08:34;;;;;;;3.78;3.38;;;17.00;99.90;;;;;;6246644;23;19996;-86
2021/08/26 04:11:00;;;;;;;4.57;3.58;;;17.10;99.90;;;;;;6219790;23;20008;-86
2021/08/26 04:13:26;;;;;;;4.20;3.65;;;17.20;99.90;;;;;;6246803;23;20000;-86
2021/08/26 04:15:51;;;;;;;4.25;3.67;;;17.20;99.90;;;;;;6246385;23;20000;-86
2021/08/26 04:18:17;;;;;;;3.35;3.05;;;17.30;99.90;;;;;;6246657;23;20079;-86
2021/08/26 04:20:43;;;;;;;4.20;3.80;;;17.50;99.90;;;;;;6219924;23;20009;-86
2021/08/26 04:23:09;;;;;;;3.42;3.13;;;17.60;99.90;;;;;;6219853;23;20083;-86
2021/08/26 04:25:34;;;;;;;3.55;3.25;;;17.70;99.90;;;;;;6246263;23;20518;-86
2021/08/26 04:28:00;;;;;;;4.95;3.80;;;17.80;99.90;;;;;;6219459;23;20410;-86
2021/08/26 04:30:26;;;;;;;4.10;3.42;;;18.00;99.90;;;;;;6219740;23;20019;-86
2021/08/26 04:32:51;;;;;;;3.60;3.30;;;18.10;99.70;;;;;;6219551;23;20015;-86
2021/08/26 04:35:17;;;;;;;4.18;3.50;;;18.30;99.30;;;;;;6246404;22;20006;-86
2021/08/26 04:37:43;;;;;;;3.67;3.08;;;18.30;98.90;;;;;;6219605;23;20474;-86
2021/08/26 04:40:09;;;;;;;3.55;3.25;;;18.40;98.50;;;;;;6246579;23;20138;-86
2021/08/26 04:42:35;;;;;;;4.30;2.92;;;18.40;98.20;;;;;;6243882;23;20444;-86
2021/08/26 04:45:00;;;;;;;4.10;3.70;;;18.40;97.90;;;;;;6219068;23;20099;-86
2021/08/26 04:47:26;;;;;;;3.25;2.95;;;18.30;97.90;;;;;;6246597;23;20007;-86
2021/08/26 04:49:52;;;;;;;3.65;3.28;;;18.30;98.00;;;;;;6246256;23;20075;-85
2021/08/26 04:52:17;;;;;;;4.22;3.47;;;18.40;98.20;;;;;;6246438;23;20008;-85
2021/08/26 04:54:43;;;;;;;3.42;3.13;;;18.40;98.00;;;;;;6221232;23;20092;-86
2021/08/26 04:57:09;;;;;;;3.67;3.22;;;18.40;98.10;;;;;;6248449;23;20004;-86
2021/08/26 04:59:34;;;;;;;3.42;3.13;;;18.50;98.20;;;;;;6220938;23;20000;-86
2021/08/26 05:02:00;;;;;;;3.85;3.35;;;18.50;98.00;;;;;;6248168;23;20376;-86
2021/08/26 05:04:26;;;;;;;3.75;3.45;;;18.60;97.90;;;;;;6248036;23;20000;-86
2021/08/26 05:06:52;;;;;;;3.65;3.35;;;18.70;97.70;;;;;;6221165;23;20070;-85
2021/08/26 05:09:19;;;;;;;3.97;3.22;;;18.80;97.70;;;;;;6221547;23;20013;-86
2021/08/26 05:11:45;;;;;;;3.08;2.80;;;18.80;97.60;;;;;;6246752;23;20004;-86
2021/08/26 05:14:11;;;;;;;3.88;3.35;;;19.00;97.40;;;;;;6221042;23;20019;-86
2021/08/26 05:16:36;;;;;;;4.22;3.00;;;19.10;97.10;;;;;;6248047;23;20000;-86
2021/08/26 05:19:02;;;;;;;3.20;2.90;;;19.30;96.80;;;;;;6221123;23;20010;-86
2021/08/26 05:21:28;;;;;;;3.30;3.00;;;19.30;96.30;;;;;;6246318;23;20075;-86
2021/08/26 05:23:54;;;;;;;3.65;2.88;;;19.30;95.50;;;;;;6247604;23;20000;-86
2021/08/26 05:26:19;;;;;;;5.20;3.60;;;19.30;95.60;;;;;;6221125;23;20297;-86
2021/08/26 05:28:46;;;;;;;4.82;3.22;;;19.40;95.70;;;;;;6220786;23;20016;-86
2021/08/26 05:31:12;;;;;;;3.75;3.45;;;19.50;95.70;;;;;;6247615;23;20090;-86
2021/08/26 05:33:38;;;;;;;3.40;3.10;;;19.60;95.30;;;;;;6246031;23;20450;-86
2021/08/26 05:36:04;;;;;;;3.97;3.30;;;19.60;94.80;;;;;;6248050;22;20000;-87
2021/08/26 05:38:30;;;;;;;3.50;3.20;;;19.60;94.60;;;;;;6219867;23;19996;-86
2021/08/26 05:40:55;;;;;;;3.55;3.25;;;19.60;94.40;;;;;;6247732;23;19996;-86
2021/08/26 05:43:21;;;;;;;4.32;3.00;;;19.60;94.40;;;;;;6248048;23;20008;-86
2021/08/26 05:45:47;;;;;;;3.97;3.60;;;19.70;94.40;;;;;;6248072;23;20012;-86
2021/08/26 05:48:13;;;;;;;3.60;3.30;;;19.70;94.30;;;;;;6220859;23;20004;-86
2021/08/26 05:50:39;;;;;;;3.95;3.50;;;19.80;93.90;;;;;;6220663;23;20009;-86
2021/08/26 05:53:05;;;;;;;3.85;3.50;;;19.70;93.90;;;;;;6220159;23;20062;-86
2021/08/26 05:55:31;;;;;;;4.40;3.92;;;19.80;93.80;;;;;;6221029;23;20004;-86
2021/08/26 05:57:57;;;;;;;4.03;3.58;;;19.80;93.30;;;;;;6219840;23;20085;-87
2021/08/26 06:00:23;;;;;;;3.50;3.20;;;19.80;93.20;;;;;;6220646;23;20007;-86
2021/08/26 06:02:49;;;;;;;4.60;3.40;;;19.80;93.40;;;;;;6220289;23;20095;-86
2021/08/26 06:05:14;;;;;;;4.15;3.65;;;19.80;93.30;;;;;;6219862;23;20001;-86
2021/08/26 06:07:40;;;;;;;4.47;3.55;;;19.80;92.80;;;;;;6247915;23;20264;-86
2021/08/26 06:10:10;;;;;;;3.67;3.30;;;19.70;93.00;;;;;;6220031;23;20027;-86
2021/08/26 06:12:43;;;;;;;3.47;3.17;;;19.80;92.90;;;;;;6246479;23;20007;-86
2021/08/26 06:15:12;;;;;;;3.83;3.30;;;19.80;92.90;;;;;;6245300;23;20092;-86
2021/08/26 06:17:39;;;;;;;3.70;3.40;;;19.80;92.50;;;;;;6246772;23;20412;-86
2021/08/26 06:20:08;;;;;;;3.90;3.55;;;19.80;92.40;;;;;;6220140;23;20011;-86
2021/08/26 06:22:33;;;;;;;3.67;3.38;;;19.70;92.10;;;;;;6219574;23;20007;-86
2021/08/26 06:24:59;;;;;;;3.42;3.13;;;19.60;92.40;;;;;;6246811;23;20001;-86
2021/08/26 06:27:25;;;;;;;3.80;3.50;;;19.60;92.60;;;;;;6219846;23;20000;-86
2021/08/26 06:29:50;;;;;;;3.60;3.30;;;19.70;92.70;;;;;;6220168;23;20062;-86
2021/08/26 06:32:17;;;;;;;4.68;4.28;;;19.80;92.60;;;;;;6219528;23;20338;-86
2021/08/26 06:34:44;;;;;;;3.58;3.28;;;19.80;92.20;;;;;;6247082;23;20000;-86
2021/08/26 06:37:09;;;;;;;3.88;3.50;;;19.80;92.20;;;;;;6245274;22;20005;-86
2021/08/26 06:39:35;;;;;;;3.45;3.15;;;19.90;92.30;;;;;;6219513;23;20417;-86
2021/08/26 06:42:01;;;;;;;4.20;3.80;;;20.00;92.30;;;;;;6246747;23;19997;-86
2021/08/26 06:44:26;;;;;;;3.88;3.28;;;20.20;91.70;;;;;;6218991;23;20005;-86
2021/08/26 06:46:52;;;;;;;3.72;3.42;;;20.20;91.60;;;;;;6219285;23;20038;-85
2021/08/26 06:49:18;;;;;;;3.00;2.70;;;20.30;91.50;;;;;;6218572;23;20012;-86
2021/08/26 06:51:47;;;;;;;3.83;3.42;;;20.40;91.50;;;;;;6218748;23;20073;-86
2021/08/26 06:54:12;;;;;;;5.93;3.70;;;20.40;91.10;;;;;;6245705;23;20004;-86
2021/08/26 06:56:38;;;;;;;4.35;3.80;;;20.50;91.20;;;;;;6218294;23;20030;-86
2021/08/26 06:59:04;;;;;;;3.78;3.42;;;20.50;91.10;;;;;;6217593;23;20000;-86
2021/08/26 07:01:29;;;;;;;4.03;3.28;;;20.60;91.20;;;;;;6245673;23;20422;-86
2021/08/26 07:03:55;;;;;;;4.20;3.88;;;20.80;91.20;;;;;;6219331;23;20008;-86
2021/08/26 07:06:21;;;;;;;3.53;3.15;;;21.00;90.70;;;;;;6246322;23;20008;-85
2021/08/26 07:08:46;;;;;;;4.38;3.97;;;21.10;90.50;;;;;;6219611;23;20019;-85
2021/08/26 07:11:12;;;;;;;3.95;3.58;;;21.20;89.80;;;;;;6248170;23;20073;-87
2021/08/26 07:13:38;;;;;;;4.13;3.70;;;21.20;89.70;;;;;;6249357;23;20004;-85
2021/08/26 07:16:04;;;;;;;4.10;3.70;;;21.20;89.90;;;;;;6249638;23;20416;-87
2021/08/26 07:18:29;;;;;;;4.80;3.72;;;21.30;90.00;;;;;;6251356;23;19996;-85
2021/08/26 07:20:55;;;;;;;6.15;4.25;;;21.50;89.60;;;;;;6221910;23;20027;-85
2021/08/26 07:23:21;;;;;;;4.10;3.70;;;21.60;88.60;;;;;;6248592;23;20007;-86
2021/08/26 07:25:47;;;;;;;3.85;3.40;;;21.60;88.10;;;;;;6251659;23;20494;-87
2021/08/26 07:28:13;;;;;;;4.70;4.30;;;21.60;88.20;;;;;;6225128;23;20101;-87
2021/08/26 07:30:39;;;;;;;4.82;4.25;;;21.70;87.60;;;;;;6246498;23;19996;-85
2021/08/26 07:33:05;;;;;;;5.55;4.95;;;21.90;87.80;;;;;;6219716;23;20067;-86
2021/08/26 07:35:31;;;;;;;3.67;3.38;;;21.90;86.40;;;;;;6245634;22;20071;-87
2021/08/26 07:37:57;;;;;;;5.10;4.50;;;22.00;86.80;;;;;;6246289;23;20007;-87
2021/08/26 07:40:23;;;;;;;5.45;4.10;;;22.20;86.50;;;;;;6244833;23;20058;-85
2021/08/26 07:42:49;;;;;;;5.43;4.82;;;22.20;86.10;;;;;;6245012;23;20007;-88
2021/08/26 07:45:21;;;;;;;4.65;4.20;;;22.40;85.50;;;;;;6219047;23;20016;-86
2021/08/26 07:47:47;;;;;;;4.88;4.47;;;22.50;85.00;;;;;;6219159;23;20003;-87
2021/08/26 07:50:13;;;;;;;5.43;4.63;;;22.50;85.00;;;;;;6245714;23;20004;-87
2021/08/26 07:52:39;;;;;;;5.32;4.72;;;22.60;84.90;;;;;;6246591;23;20083;-86
2021/08/26 07:55:06;;;;;;;5.43;4.70;;;22.70;84.20;;;;;;6246667;23;20038;-86
2021/08/26 07:57:35;;;;;;;5.30;4.72;;;22.90;84.10;;;;;;6243264;23;20027;-86
2021/08/26 08:00:01;;;;;;;5.97;4.38;;;23.10;83.60;;;;;;6242810;23;20442;-87
2021/08/26 08:02:27;;;;;;;5.07;4.05;;;23.10;82.70;;;;;;6243605;23;20004;-86
2021/08/26 08:04:52;;;;;;;8.82;5.53;;;23.10;82.30;;;;;;6217503;23;20375;-87
2021/08/26 08:07:18;;;;;;;5.07;4.57;;;23.00;81.40;;;;;;6217399;23;20014;-86
2021/08/26 08:09:44;;;;;;;5.32;4.82;;;22.90;82.00;;;;;;6243270;23;20015;-86
2021/08/26 08:12:10;;;;;;;5.90;5.32;;;22.90;82.20;;;;;;6245586;23;20024;-86
2021/08/26 08:14:36;;;;;;;4.93;4.43;;;22.80;82.40;;;;;;6246348;23;20050;-86
2021/08/26 08:17:02;;;;;;;7.05;4.60;;;22.90;82.40;;;;;;6246511;23;20028;-87
2021/08/26 08:19:28;;;;;;;7.35;5.18;;;23.00;82.30;;;;;;6219057;23;20001;-87
2021/08/26 08:21:54;;;;;;;5.20;4.70;;;23.20;81.90;;;;;;6219004;23;20012;-87
2021/08/26 08:24:19;;;;;;;5.80;5.20;;;23.30;81.70;;;;;;6219101;23;19996;-87
2021/08/26 08:26:46;;;;;;;4.72;4.32;;;23.40;81.00;;;;;;6245999;23;20000;-87
2021/08/26 08:29:11;;;;;;;5.72;5.03;;;23.50;81.10;;;;;;6218436;23;20004;-87
2021/08/26 08:31:37;;;;;;;4.63;4.13;;;23.60;81.10;;;;;;6219166;23;20007;-87
2021/08/26 08:34:03;;;;;;;6.82;5.72;;;23.70;80.90;;;;;;6246257;23;20008;-86
2021/08/26 08:36:29;;;;;;;5.43;4.90;;;23.90;80.10;;;;;;6245932;22;19997;-86
2021/08/26 08:38:57;;;;;;;6.35;5.75;;;23.90;78.80;;;;;;6245931;23;20007;-87
2021/08/26 08:41:23;;;;;;;6.60;6.00;;;23.80;78.60;;;;;;6219073;23;20030;-88
2021/08/26 08:43:49;;;;;;;5.13;4.65;;;23.70;78.60;;;;;;6246376;23;20001;-86
2021/08/26 08:46:17;;;;;;;6.38;5.00;;;23.70;79.50;;;;;;6218590;23;20047;-86
2021/08/26 08:48:43;;;;;;;6.28;5.40;;;23.70;79.40;;;;;;6245363;23;20000;-86
2021/08/26 08:51:10;;;;;;;5.15;4.57;;;23.80;79.20;;;;;;6245561;23;20011;-85
2021/08/26 08:53:37;;;;;;;4.60;4.20;;;23.90;79.20;;;;;;6219173;23;20083;-86
2021/08/26 08:56:08;;;;;;;5.53;4.47;;;24.10;79.00;;;;;;6245424;23;20012;-87
2021/08/26 08:58:39;;;;;;;6.50;4.55;;;24.20;78.40;;;;;;6243819;23;20000;-86
2021/08/26 09:01:06;;;;;;;4.50;4.10;;;24.40;77.60;;;;;;6243134;23;20004;-87
2021/08/26 09:03:34;;;;;;;4.63;4.13;;;24.70;77.50;;;;;;6245113;23;19996;-88
2021/08/26 09:06:00;;;;;;;4.38;3.95;;;25.00;77.10;;;;;;6219542;23;20004;-89
2021/08/26 09:08:29;;;;;;;4.60;4.00;;;25.40;76.20;;;;;;6220962;23;20015;-91
2021/08/26 09:11:15;;;;;;;5.10;4.60;;;25.70;75.30;;;;;;6219841;23;20000;-91
2021/08/26 09:13:42;;;;;;;5.97;4.75;;;26.00;73.80;;;;;;6245406;23;20388;-89
2021/08/26 09:16:09;;;;;;;6.05;4.97;;;26.00;72.90;;;;;;6244417;23;20000;-90
2021/08/26 09:18:35;;;;;;;4.65;4.22;;;25.80;72.00;;;;;;6244775;23;20008;-90
2021/08/26 09:21:05;;;;;;;5.85;5.20;;;25.70;72.70;;;;;;6220404;23;20014;-91
2021/08/26 09:23:33;;;;;;;5.45;4.95;;;25.50;72.60;;;;;;6220673;23;20087;-92
2021/08/26 09:26:17;;;;;;;6.90;6.20;;;25.40;73.30;;;;;;6246608;23;20003;-92
2021/08/26 09:28:43;;;;;;;5.80;5.20;;;25.30;71.40;;;;;;6247115;23;20027;-91
2021/08/26 09:31:17;;;;;;;5.82;5.22;;;25.20;73.20;;;;;;6227222;23;20008;-91
2021/08/26 09:34:04;;;;;;;6.13;5.53;;;25.10;73.00;;;;;;6234392;23;20008;-91
2021/08/26 09:36:37;;;;;;;6.18;5.57;;;24.90;73.40;;;;;;6235092;23;20023;-91
2021/08/26 09:39:08;;;;;;;6.97;6.28;;;24.80;74.00;;;;;;6256932;23;20126;-91
2021/08/26 09:41:44;;;;;;;6.25;5.63;;;24.80;74.20;;;;;;6222326;23;20008;-91
2021/08/26 09:44:13;;;;;;;5.50;5.00;;;24.80;74.60;;;;;;6222523;23;20062;-91
2021/08/26 09:46:39;;;;;;;6.93;5.60;;;24.80;74.70;;;;;;6249838;23;20012;-91
2021/08/26 09:49:10;;;;;;;7.18;6.50;;;24.70;74.30;;;;;;6222318;23;20010;-89
2021/08/26 09:51:37;;;;;;;6.93;6.22;;;24.60;74.00;;;;;;6223082;23;20028;-90
2021/08/26 09:54:04;;;;;;;6.13;5.53;;;24.40;74.80;;;;;;6221603;23;20308;-90
2021/08/26 09:56:40;;;;;;;5.75;5.25;;;24.20;75.60;;;;;;6250888;23;20001;-89
2021/08/26 09:59:07;;;;;;;6.28;5.68;;;23.90;76.20;;;;;;6220953;23;20073;-90
2021/08/26 10:01:38;;;;;;;6.55;5.95;;;23.80;76.80;;;;;;6250860;23;20008;-90
2021/08/26 10:04:27;;;;;;;6.88;6.25;;;23.70;77.20;;;;;;6247731;23;20051;-90
2021/08/26 10:06:54;;;;;;;7.25;6.50;;;23.50;78.30;;;;;;6220522;23;20062;-89
2021/08/26 10:09:23;;;;;;;7.22;6.60;;;23.30;78.70;;;;;;6246059;23;20111;-90
2021/08/26 10:11:49;;;;;;;6.90;5.60;;;23.10;79.80;;;;;;6220564;23;20074;-90
2021/08/26 10:14:15;;;;;;;6.55;5.88;;;23.00;80.10;;;;;;6246159;23;20011;-91
2021/08/26 10:16:42;;;;;;;6.78;6.18;;;22.90;80.90;;;;;;6220449;23;20004;-90
2021/08/26 10:19:11;;;;;;;6.75;5.75;;;22.80;81.40;;;;;;6220621;23;20011;-90
2021/08/26 10:21:38;;;;;;;7.00;5.45;;;22.70;81.50;;;;;;6220222;23;20054;-90
2021/08/26 10:24:04;;;;;;;8.57;5.22;;;22.70;81.80;;;;;;6247159;23;20008;-88
2021/08/26 10:26:31;;;;;;;5.30;4.80;;;22.60;82.30;;;;;;6247469;23;19996;-89
2021/08/26 10:28:58;;;;;;;5.72;4.75;;;22.60;82.60;;;;;;6219942;23;20011;-90
2021/08/26 10:31:31;;;;;;;5.63;5.03;;;22.60;82.60;;;;;;6247282;23;20007;-90
2021/08/26 10:34:26;;;;;;;4.68;4.28;;;22.60;82.80;;;;;;6245760;23;20109;-90
2021/08/26 10:36:55;;;;;;;6.20;4.72;;;22.70;83.70;;;;;;6245639;22;20011;-91
2021/08/26 10:39:41;;;;;;;5.68;5.18;;;22.70;83.30;;;;;;6221646;23;20024;-92
2021/08/26 10:42:16;;;;;;;5.85;5.15;;;22.80;83.20;;;;;;6219531;23;20327;-89
2021/08/26 10:45:02;;;;;;;8.13;6.50;;;22.80;83.70;;;;;;6220083;23;20004;-90
2021/08/26 10:47:49;;;;;;;6.50;4.88;;;22.80;83.70;;;;;;6220627;23;20118;-91
2021/08/26 10:50:37;;;;;;;7.40;6.60;;;22.60;84.70;;;;;;6247754;23;19997;-91
2021/08/26 10:53:08;;;;;;;7.57;6.85;;;22.50;85.30;;;;;;6247548;23;20085;-90
2021/08/26 10:55:39;;;;;;;8.27;6.45;;;22.40;85.50;;;;;;6246757;23;20008;-90
2021/08/26 10:58:23;;;;;;;7.03;6.32;;;22.40;85.90;;;;;;6222237;23;20059;-89
2021/08/26 11:00:52;;;;;;;6.18;5.30;;;22.30;86.50;;;;;;6220855;23;20301;-89
2021/08/26 11:03:36;;;;;;;5.95;5.15;;;22.30;86.60;;;;;;6246987;23;20003;-89
2021/08/26 11:06:14;;;;;;;6.07;4.95;;;22.30;86.80;;;;;;6220006;23;20000;-88
2021/08/26 11:08:43;;;;;;;7.78;5.45;;;22.30;86.70;;;;;;6246503;23;20317;-91
2021/08/26 11:11:24;;;;;;;6.75;5.80;;;22.30;86.70;;;;;;6220761;23;20305;-92
2021/08/26 11:13:52;;;;;;;6.45;5.30;;;22.20;87.30;;;;;;6220826;23;20012;-90
2021/08/26 11:16:23;;;;;;;6.45;5.18;;;22.20;87.10;;;;;;6246972;23;20004;-90
2021/08/26 11:19:15;;;;;;;5.78;5.18;;;22.10;88.00;;;;;;6221497;23;20004;-92
2021/08/26 11:21:56;;;;;;;7.32;6.63;;;22.10;88.70;;;;;;6243432;23;20015;-92
2021/08/26 11:24:23;;;;;;;9.10;7.05;;;22.00;88.90;;;;;;6221347;23;20015;-91
2021/08/26 11:27:07;;;;;;;7.28;6.55;;;21.90;89.80;;;;;;6223016;23;20000;-91
2021/08/26 11:29:57;;;;;;;7.65;6.05;;;21.70;90.20;;;;;;6225244;23;20011;-93
2021/08/26 11:32:54;;;;;;;6.35;5.75;;;21.60;90.50;;;;;;6215875;23;20014;-93
2021/08/26 11:35:22;;;;;;;5.72;5.13;;;21.50;90.80;;;;;;6221107;22;20370;-93
2021/08/26 11:37:53;;;;;;;7.53;6.55;;;21.50;90.90;;;;;;6248926;23;19996;-89
2021/08/26 11:40:21;;;;;;;7.93;7.13;;;21.40;91.30;;;;;;6221890;23;20084;-90
2021/08/26 11:42:52;;;;;;;6.88;6.18;;;21.50;91.10;;;;;;6250300;23;20008;-91
2021/08/26 11:45:29;;;;;;;6.40;5.80;;;21.50;91.30;;;;;;6245743;23;20013;-91
2021/08/26 11:47:58;;;;;;;5.53;4.97;;;21.50;91.30;;;;;;6220833;23;20083;-90
2021/08/26 11:50:41;;;;;;;6.70;5.70;;;21.50;91.10;;;;;;6219906;23;20008;-90
2021/08/26 11:53:11;;;;;;;5.32;4.82;;;21.50;91.20;;;;;;6220224;23;20004;-89
2021/08/26 11:55:41;;;;;;;5.28;4.80;;;21.60;91.90;;;;;;6246846;23;20075;-89
2021/08/26 11:58:08;;;;;;;5.47;4.97;;;21.60;91.40;;;;;;6244525;23;20379;-91
2021/08/26 12:00:39;;;;;;;5.25;4.78;;;21.80;91.50;;;;;;6246871;23;20000;-91
2021/08/26 12:03:04;;;;;;;5.18;4.68;;;22.00;91.40;;;;;;6220918;23;20012;-93
2021/08/26 12:05:30;;;;;;;4.43;4.00;;;22.00;91.40;;;;;;6247880;23;20003;-90
2021/08/26 12:07:57;;;;;;;5.50;4.55;;;22.10;91.30;;;;;;6249680;23;20023;-92
2021/08/26 12:10:34;;;;;;;5.25;4.50;;;22.10;91.30;;;;;;6221139;23;20175;-95
2021/08/26 12:13:05;;;;;;;5.82;5.22;;;22.20;91.30;;;;;;6248788;23;20030;-91
2021/08/26 12:15:34;;;;;;;5.65;4.55;;;22.20;91.30;;;;;;6246212;23;20183;-91
2021/08/26 12:18:03;;;;;;;5.57;4.85;;;22.30;91.30;;;;;;6247112;23;20011;-90
2021/08/26 12:20:31;;;;;;;6.45;5.40;;;22.30;91.30;;;;;;6245835;23;20014;-89
2021/08/26 12:22:57;;;;;;;7.72;6.30;;;22.40;91.20;;;;;;6246306;23;20476;-90
2021/08/26 12:25:38;;;;;;;6.57;5.72;;;22.30;91.30;;;;;;6219408;23;20000;-89
2021/08/26 12:28:06;;;;;;;7.18;6.47;;;22.30;91.20;;;;;;6245018;23;20466;-90
2021/08/26 12:30:40;;;;;;;7.65;6.65;;;22.30;91.40;;;;;;6246686;23;20000;-90
2021/08/26 12:33:18;;;;;;;8.00;7.13;;;22.30;91.80;;;;;;6245148;23;20415;-89
2021/08/26 12:35:47;;;;;;;9.45;7.88;;;22.20;91.80;;;;;;6247980;22;20011;-90
2021/08/26 12:38:16;;;;;;;8.73;7.40;;;22.20;92.40;;;;;;6249528;23;20019;-88
2021/08/26 12:40:53;;;;;;;11.55;7.88;;;22.10;92.40;;;;;;6244814;23;20005;-94
2021/08/26 12:43:23;;;;;;;7.95;7.18;;;22.10;93.50;;;;;;6220244;23;20770;-90
2021/08/26 12:45:49;;;;;;;7.95;7.15;;;22.00;93.30;;;;;;6244245;23;20495;-91
2021/08/26 12:48:28;;;;;;;8.68;7.72;;;22.00;93.60;;;;;;6245607;23;20079;-91
2021/08/26 12:51:21;;;;;;;8.70;7.22;;;22.00;93.90;;;;;;6246476;23;20008;-90
2021/08/26 12:53:48;;;;;;;7.38;6.68;;;21.90;94.30;;;;;;6230895;23;20004;-90
2021/08/26 12:56:17;;;;;;;7.88;7.15;;;21.90;93.80;;;;;;6246248;23;20008;-90
2021/08/26 12:59:12;;;;;;;8.32;7.38;;;21.90;94.10;;;;;;6247107;23;20004;-92
2021/08/26 13:01:49;;;;;;;7.75;6.95;;;21.70;95.00;;;;;;6245798;23;20012;-91